Huvudsida
METAR-TAF:

METAR-TAF

Flygplatser :

Kirkenes flygplats. Høybuktmoen

Kirkenes, Norge

latitud: 69-44N, longitud: 029-54E, höjd: 9 m

Aktuellt väderrapport

Denna rapport gjordes för 17 minuter sedan, klockan 22:20 UTC
Vind 3 kt från syd
Temperatur -20°C
Fuktighet 84%
Tryck 1021 hPa
Sikt: 0300 m
underkyld dimma

METAR: ENKR 112220Z 18003KT 0300 R05/0500U R23/0400N FZFG VV001 M20/M22 Q1021 RMK WIND 731FT 07008KT

Tid: 23:37 (22:37 UTC)

Väderprognos

Denna rapport gjordes för 2 timmar och 37 minuter sedan, klockan 20:00 UTC
Prognos gäller från 11 kl. 21 UTC till 12 kl. 06 UTC
Vind 5 kt från syd
Sikt 10 km eller mer
Få moln på en höjd av 200 ft
Temporärt
från 11 kl. 21 UTC till 12 kl. 06 UTC
Sikt: 4000 m
dimbankar
Temporärt
från 11 kl. 21 UTC till 12 kl. 06 UTC
Sikt: 0300 m
på en höjd av 100 ft
underkyld dimma

TAF: ENKR 112000Z 1121/1206 17005KT 9999 FEW002 TEMPO 1121/1206 4000 BCFG TEMPO 1121/1206 0300 FZFG VV001

Aktuella väderrapporter och prognoser från 4000 flygplatser (METAR- och TAF-rapporter).

De tillgängliga stationerna syns som gula och röda prickar på kartan.

För musen över prickarna för att se namnen på stationerna.

Klicka sedan för att få väderrapporter och prognoser.

För att ändra kartan: Klicka på de gröna knapparna med ett svart kors på för att zooma in; den gröna knappen med ett streck på för att zooma ut; eller på de gröna pilarna för angränsande kartor.


METAR-TAF: